Vance, Mississippi
Current Conditions -  °F | °C
As of 3:15 AM on Monday 24 Nov 2014 (Local Time) from KCKM Reporting Station
Broken Clouds Broken Clouds  
Wind Chill: 57°   Ceiling: 3500
Heat Index: 57°   Visibility: 10mi
Dew Point: 50°   Wind: 17mph
Humidity: 77%   Direction: 230°SW
Pressure: 29.6"   Gusts: 25mph
Location:  34.08°N, 90.35°W
Report Text: KCKM 240915Z AUTO 23015G22KT 10SM BKN035 14/10 A2960 RMK AO1
Loading
Personal Weather Stations






























Interactive Weather Map New forecast layout! Learn more

10-Day Weather Forecast

Advertisements
Track Severe Weather on mobile